Time;durP1;ratioP1;P1;durP2;ratioP2;P2;SDS_P1;SDS_P2;PMS_P1;PMS_P2;Temp;Humidity;BMP_temperature;BMP_pressure;BME280_temperature;BME280_humidity;BME280_pressure;Samples;Min_cycle;Max_cycle;Signal;HPM_P1;HPM_P2
2023/04/25 00:00:38;;;;;;;3.50;1.50;;;;;;;;;;106709;1272;22814;-81
2023/04/25 00:07:13;;;;;;;5.30;1.40;;;;;;;;;;107027;1276;24313;-79
2023/04/25 00:10:10;;;;;;;;;;;;;;;;;;;;;
2023/04/25 00:17:25;;;;;;;3.60;1.40;;;;;;;;;;106393;1284;22614;-85
2023/04/25 00:19:52;;;;;;;4.40;1.50;;;;;;;;;;106365;1276;26444;-80
2023/04/25 00:26:26;;;;;;;5.10;1.80;;;;;;;;;;106805;1280;22467;-80
2023/04/25 00:32:53;;;;;;;4.60;1.50;;;;;;;;;;106729;1261;22684;-82
2023/04/25 00:35:21;;;;;;;5.20;1.80;;;;;;;;;;106873;1279;22526;-83
2023/04/25 00:37:50;;;;;;;6.90;2.10;;;;;;;;;;106756;1279;22561;-81
2023/04/25 00:40:19;;;;;;;7.90;2.10;;;;;;;;;;106767;1279;22537;-81
2023/04/25 00:42:47;;;;;;;5.80;2.10;;;;;;;;;;106987;1270;25319;-78
2023/04/25 00:45:34;;;;;;;7.70;2.50;;;;;;;;;;107074;1275;24228;-85
2023/04/25 00:48:21;;;;;;;6.20;2.60;;;;;;;;;;107046;1276;22552;-84
2023/04/25 00:50:52;;;;;;;5.60;2.00;;;;;;;;;;107020;1276;25268;-79
2023/04/25 00:55:01;;;;;;;;;;;;;;;;;;;;;
2023/04/25 00:58:10;;;;;;;5.70;2.20;;;;;;;;;;106578;1281;22765;-79
2023/04/25 01:00:43;;;;;;;6.20;2.30;;;;;;;;;;106421;1281;22603;-79
2023/04/25 01:03:35;;;;;;;5.30;2.00;;;;;;;;;;106732;1271;22653;-79
2023/04/25 01:06:02;;;;;;;6.60;2.40;;;;;;;;;;106559;1281;22590;-84
2023/04/25 01:08:32;;;;;;;5.00;1.80;;;;;;;;;;106635;1280;26482;-81
2023/04/25 01:10:59;;;;;;;6.50;2.10;;;;;;;;;;106736;1280;24232;-80
2023/04/25 01:13:25;;;;;;;6.00;2.00;;;;;;;;;;106620;1264;22542;-86
2023/04/25 01:15:53;;;;;;;6.00;2.30;;;;;;;;;;106634;1280;24195;-80
2023/04/25 01:18:22;;;;;;;7.30;2.00;;;;;;;;;;106685;1281;23484;-82
2023/04/25 01:20:51;;;;;;;5.50;1.50;;;;;;;;;;107048;1275;22520;-84
2023/04/25 01:23:19;;;;;;;7.90;2.00;;;;;;;;;;106871;1270;22759;-80
2023/04/25 01:25:53;;;;;;;4.80;1.70;;;;;;;;;;107117;1276;26485;-80
2023/04/25 01:29:31;;;;;;;5.40;1.90;;;;;;;;;;106760;1276;25223;-79
2023/04/25 01:32:01;;;;;;;5.40;1.80;;;;;;;;;;106377;1282;22562;-83
2023/04/25 01:34:31;;;;;;;4.70;2.00;;;;;;;;;;106525;1264;22640;-82
2023/04/25 01:37:00;;;;;;;6.40;2.10;;;;;;;;;;106744;1276;25274;-81
2023/04/25 01:39:32;;;;;;;4.90;1.80;;;;;;;;;;106909;1276;24345;-85
2023/04/25 01:42:00;;;;;;;6.30;1.80;;;;;;;;;;106879;1276;25341;-83
2023/04/25 01:44:27;;;;;;;5.30;1.70;;;;;;;;;;107036;1275;22524;-79
2023/04/25 01:46:54;;;;;;;5.90;1.80;;;;;;;;;;107381;1275;22535;-83
2023/04/25 01:49:23;;;;;;;5.40;1.90;;;;;;;;;;106935;1275;25278;-79
2023/04/25 01:51:50;;;;;;;6.50;2.40;;;;;;;;;;106952;1275;23025;-82
2023/04/25 01:54:18;;;;;;;6.40;2.30;;;;;;;;;;107064;1257;22523;-80
2023/04/25 01:56:50;;;;;;;8.50;2.40;;;;;;;;;;106952;1276;25318;-78
2023/04/25 01:59:18;;;;;;;5.90;2.10;;;;;;;;;;106930;1276;22531;-80
2023/04/25 02:02:06;;;;;;;5.90;2.10;;;;;;;;;;106939;1276;25467;-79
2023/04/25 02:04:39;;;;;;;6.90;2.30;;;;;;;;;;106842;1275;25281;-83
2023/04/25 02:07:06;;;;;;;5.60;2.00;;;;;;;;;;107136;1270;23896;-79
2023/04/25 02:09:43;;;;;;;5.60;1.80;;;;;;;;;;106952;1276;24327;-81
2023/04/25 02:12:12;;;;;;;5.20;2.00;;;;;;;;;;107106;1275;22538;-78
2023/04/25 02:14:57;;;;;;;5.90;1.90;;;;;;;;;;106882;1270;22542;-85
2023/04/25 02:17:31;;;;;;;7.10;2.40;;;;;;;;;;106826;1276;24263;-83
2023/04/25 02:20:07;;;;;;;6.00;2.10;;;;;;;;;;106892;1276;24209;-84
2023/04/25 02:22:35;;;;;;;5.60;2.20;;;;;;;;;;106905;1276;22569;-84
2023/04/25 02:25:04;;;;;;;7.50;2.40;;;;;;;;;;106675;1259;25334;-83
2023/04/25 02:27:31;;;;;;;7.40;2.50;;;;;;;;;;107035;1275;22514;-84
2023/04/25 02:30:01;;;;;;;6.60;2.40;;;;;;;;;;106854;1275;22534;-80
2023/04/25 02:32:28;;;;;;;6.90;2.30;;;;;;;;;;106995;1275;22604;-81
2023/04/25 02:34:55;;;;;;;7.40;2.00;;;;;;;;;;106863;1259;24196;-81
2023/04/25 02:37:24;;;;;;;7.60;2.50;;;;;;;;;;106922;1275;22767;-83
2023/04/25 02:39:51;;;;;;;5.60;2.40;;;;;;;;;;107139;1275;22527;-83
2023/04/25 02:42:19;;;;;;;6.90;2.20;;;;;;;;;;110379;1276;22131;-78
2023/04/25 02:44:46;;;;;;;5.90;2.10;;;;;;;;;;110695;1251;22140;-77
2023/04/25 02:47:12;;;;;;;5.70;2.30;;;;;;;;;;110595;1275;21992;-77
2023/04/25 02:49:39;;;;;;;6.40;2.50;;;;;;;;;;110608;1275;22898;-78
2023/04/25 02:52:06;;;;;;;6.70;2.30;;;;;;;;;;110505;1275;22139;-78
2023/04/25 02:54:33;;;;;;;5.30;2.10;;;;;;;;;;110412;1261;23317;-78
2023/04/25 02:57:00;;;;;;;8.30;2.20;;;;;;;;;;110485;1257;22966;-77
2023/04/25 02:59:29;;;;;;;8.00;2.40;;;;;;;;;;110459;1276;22199;-77
2023/04/25 03:02:40;;;;;;;5.90;1.90;;;;;;;;;;110031;1281;22139;-77
2023/04/25 03:05:07;;;;;;;6.70;2.20;;;;;;;;;;110083;1257;22171;-78
2023/04/25 03:07:35;;;;;;;6.00;2.30;;;;;;;;;;110046;1280;22365;-78
2023/04/25 03:10:02;;;;;;;6.90;2.50;;;;;;;;;;110117;1273;22540;-78
2023/04/25 03:12:30;;;;;;;7.30;2.40;;;;;;;;;;109929;1280;22879;-78
2023/04/25 03:14:56;;;;;;;5.60;1.90;;;;;;;;;;110036;1260;22367;-80
2023/04/25 03:17:23;;;;;;;7.50;2.40;;;;;;;;;;110062;1265;22125;-79
2023/04/25 03:19:50;;;;;;;6.60;2.20;;;;;;;;;;109998;1281;22161;-78
2023/04/25 03:22:17;;;;;;;6.50;2.20;;;;;;;;;;110003;1281;22142;-78
2023/04/25 03:24:44;;;;;;;7.90;2.50;;;;;;;;;;110040;1281;22190;-78
2023/04/25 03:27:10;;;;;;;5.70;2.30;;;;;;;;;;110357;1262;23089;-78
2023/04/25 03:29:37;;;;;;;9.00;2.70;;;;;;;;;;110063;1280;22914;-78
2023/04/25 03:32:05;;;;;;;7.40;2.60;;;;;;;;;;110022;1275;22434;-78
2023/04/25 03:34:31;;;;;;;8.00;2.70;;;;;;;;;;111102;1257;22274;-78
2023/04/25 03:36:59;;;;;;;6.80;2.20;;;;;;;;;;110585;1256;22379;-78
2023/04/25 03:39:26;;;;;;;6.80;2.30;;;;;;;;;;110459;1276;22101;-78
2023/04/25 03:41:53;;;;;;;8.30;2.80;;;;;;;;;;110635;1276;22173;-78
2023/04/25 03:44:20;;;;;;;8.10;3.00;;;;;;;;;;110367;1276;22099;-78
2023/04/25 03:46:47;;;;;;;10.40;3.50;;;;;;;;;;110426;1256;22304;-78
2023/04/25 03:49:14;;;;;;;10.70;3.00;;;;;;;;;;110644;1275;22141;-78
2023/04/25 03:51:58;;;;;;;9.60;3.10;;;;;;;;;;110504;1275;22107;-78
2023/04/25 03:54:25;;;;;;;11.50;3.50;;;;;;;;;;110472;1262;22127;-77
2023/04/25 03:57:13;;;;;;;8.90;3.30;;;;;;;;;;110380;1255;22150;-77
2023/04/25 03:59:40;;;;;;;8.10;3.20;;;;;;;;;;110137;1279;22192;-78
2023/04/25 04:02:08;;;;;;;7.50;3.10;;;;;;;;;;110057;1279;22009;-77
2023/04/25 04:04:36;;;;;;;7.90;3.10;;;;;;;;;;110179;1279;22894;-77
2023/04/25 04:07:02;;;;;;;8.00;3.00;;;;;;;;;;110464;1256;22308;-77
2023/04/25 04:09:33;;;;;;;11.00;3.10;;;;;;;;;;110253;1277;22099;-78
2023/04/25 04:12:03;;;;;;;7.50;2.70;;;;;;;;;;110185;1277;21797;-78
2023/04/25 04:14:32;;;;;;;8.50;2.70;;;;;;;;;;110402;1277;22189;-78
2023/04/25 04:16:58;;;;;;;7.50;2.70;;;;;;;;;;110306;1260;22841;-78
2023/04/25 04:19:25;;;;;;;7.70;2.90;;;;;;;;;;110624;1261;22117;-78
2023/04/25 04:22:11;;;;;;;11.30;2.80;;;;;;;;;;110299;1278;22197;-78
2023/04/25 04:24:39;;;;;;;7.70;2.90;;;;;;;;;;110247;1278;22066;-78
2023/04/25 04:27:07;;;;;;;7.70;2.70;;;;;;;;;;110315;1256;23326;-78
2023/04/25 04:29:37;;;;;;;7.10;3.00;;;;;;;;;;110451;1275;22119;-77
2023/04/25 04:32:25;;;;;;;9.40;2.80;;;;;;;;;;110020;1281;22877;-77
2023/04/25 04:34:54;;;;;;;8.00;2.60;;;;;;;;;;110033;1281;22144;-77
2023/04/25 04:37:22;;;;;;;7.50;2.70;;;;;;;;;;110013;1260;22914;-77
2023/04/25 04:39:50;;;;;;;7.70;2.60;;;;;;;;;;110015;1281;22150;-77
2023/04/25 04:47:01;;;;;;;6.40;2.10;;;;;;;;;;109613;1267;22145;-78
2023/04/25 04:49:33;;;;;;;6.30;2.20;;;;;;;;;;109507;1290;22193;-77
2023/04/25 04:52:38;;;;;;;7.70;2.70;;;;;;;;;;109174;1294;22179;-78
2023/04/25 04:56:23;;;;;;;8.50;2.60;;;;;;;;;;101268;1296;10139234;-77
2023/04/25 04:58:50;;;;;;;5.40;1.60;;;;;;;;;;108909;1279;22952;-78
2023/04/25 05:01:56;;;;;;;8.20;2.80;;;;;;;;;;108820;1296;22985;-78
2023/04/25 05:04:41;;;;;;;6.80;2.30;;;;;;;;;;109149;1293;21983;-79
2023/04/25 05:11:27;;;;;;;10.30;2.90;;;;;;;;;;110724;1253;22082;-78
2023/04/25 05:14:38;;;;;;;7.70;2.50;;;;;;;;;;110085;1281;22865;-78
2023/04/25 05:20:25;;;;;;;7.30;2.70;;;;;;;;;;110580;1253;22346;-78
2023/04/25 05:23:10;;;;;;;9.00;2.90;;;;;;;;;;110367;1276;22830;-79
2023/04/25 05:25:43;;;;;;;8.30;2.70;;;;;;;;;;110500;1276;22584;-78
2023/04/25 05:28:22;;;;;;;9.90;2.90;;;;;;;;;;110489;1276;22257;-78
2023/04/25 05:31:03;;;;;;;10.00;3.10;;;;;;;;;;110614;1256;22112;-79
2023/04/25 05:36:16;;;;;;;8.40;2.70;;;;;;;;;;110388;1277;22370;-78
2023/04/25 05:38:44;;;;;;;10.30;2.80;;;;;;;;;;110206;1277;22116;-78
2023/04/25 05:41:17;;;;;;;8.80;2.90;;;;;;;;;;110509;1256;22140;-78
2023/04/25 05:44:21;;;;;;;9.70;2.90;;;;;;;;;;109960;1284;22209;-77
2023/04/25 05:51:16;;;;;;;10.30;3.10;;;;;;;;;;110607;1254;22134;-78
2023/04/25 05:53:45;;;;;;;9.80;3.20;;;;;;;;;;110471;1276;22208;-78
2023/04/25 05:56:13;;;;;;;11.80;3.90;;;;;;;;;;110291;1276;22202;-78
2023/04/25 05:58:41;;;;;;;10.20;3.00;;;;;;;;;;110608;1276;22090;-77
2023/04/25 06:01:09;;;;;;;8.90;3.40;;;;;;;;;;110275;1255;23153;-78
2023/04/25 06:03:37;;;;;;;10.90;3.10;;;;;;;;;;110354;1260;22782;-77
2023/04/25 06:06:04;;;;;;;10.80;3.60;;;;;;;;;;110449;1276;22166;-77
2023/04/25 06:08:31;;;;;;;9.50;3.10;;;;;;;;;;110597;1276;22162;-78
2023/04/25 06:14:02;;;;;;;6.90;2.90;;;;;;;;;;110653;1253;23352;-78
2023/04/25 06:16:59;;;;;;;8.60;2.90;;;;;;;;;;104088;1289;548233;-81
2023/04/25 06:19:35;;;;;;;9.60;3.50;;;;;;;;;;106440;1276;22681;-84
2023/04/25 06:22:02;;;;;;;9.50;3.30;;;;;;;;;;106342;1286;22569;-82
2023/04/25 06:24:30;;;;;;;5.90;2.80;;;;;;;;;;106121;1286;24254;-83
2023/04/25 06:26:58;;;;;;;9.60;3.60;;;;;;;;;;106269;1270;23886;-77
2023/04/25 06:29:25;;;;;;;8.20;3.40;;;;;;;;;;104011;1284;3069596;-82
2023/04/25 06:31:51;;;;;;;11.30;4.00;;;;;;;;;;106486;1284;22506;-79
2023/04/25 06:34:25;;;;;;;10.10;3.60;;;;;;;;;;106595;1283;24212;-81
2023/04/25 06:36:51;;;;;;;11.10;3.80;;;;;;;;;;106692;1266;24392;-79
2023/04/25 06:39:19;;;;;;;12.70;3.80;;;;;;;;;;106083;1286;22541;-86
2023/04/25 06:41:46;;;;;;;10.00;3.60;;;;;;;;;;106175;1286;22674;-80
2023/04/25 06:44:35;;;;;;;12.00;4.20;;;;;;;;;;106580;1286;22353;-79
2023/04/25 06:50:57;;;;;;;15.30;4.10;;;;;;;;;;105949;1291;25817;-83
2023/04/25 06:53:27;;;;;;;13.80;3.60;;;;;;;;;;105847;1291;22542;-83
2023/04/25 06:58:39;;;;;;;10.70;3.90;;;;;;;;;;106332;1267;25447;-83
2023/04/25 07:05:07;;;;;;;10.10;3.30;;;;;;;;;;106100;1289;23887;-80
2023/04/25 07:10:21;;;;;;;11.40;4.20;;;;;;;;;;106365;1263;22564;-83
2023/04/25 07:12:48;;;;;;;12.40;4.10;;;;;;;;;;106430;1286;22561;-83
2023/04/25 07:15:14;;;;;;;9.00;4.00;;;;;;;;;;106295;1285;22772;-82
2023/04/25 07:17:41;;;;;;;9.20;3.90;;;;;;;;;;106179;1286;25450;-82
2023/04/25 07:20:33;;;;;;;10.80;4.50;;;;;;;;;;106618;1285;24809;-85
2023/04/25 07:23:02;;;;;;;14.30;4.80;;;;;;;;;;106387;1268;24219;-81
2023/04/25 07:25:28;;;;;;;10.00;4.30;;;;;;;;;;106373;1286;22535;-84
2023/04/25 07:27:55;;;;;;;10.50;3.90;;;;;;;;;;106205;1286;24212;-81
2023/04/25 07:30:22;;;;;;;11.10;4.50;;;;;;;;;;106542;1281;22530;-81
2023/04/25 07:32:56;;;;;;;8.70;3.60;;;;;;;;;;106903;1264;22494;-80
2023/04/25 07:35:23;;;;;;;11.60;4.30;;;;;;;;;;106578;1281;22625;-80
2023/04/25 07:37:50;;;;;;;10.00;4.10;;;;;;;;;;106555;1281;24349;-80
2023/04/25 07:40:24;;;;;;;10.60;3.50;;;;;;;;;;106528;1281;25287;-79
2023/04/25 07:43:16;;;;;;;;;;;;;;;;;;;;;
2023/04/25 07:46:09;;;;;;;10.40;4.00;;;;;;;;;;106803;1281;26635;-84
2023/04/25 07:48:36;;;;;;;12.20;4.30;;;;;;;;;;106361;1281;24202;-83
2023/04/25 07:51:05;;;;;;;11.40;4.10;;;;;;;;;;106550;1281;24203;-78
2023/04/25 07:53:35;;;;;;;9.70;3.60;;;;;;;;;;106617;1265;23904;-80
2023/04/25 07:56:05;;;;;;;11.80;3.60;;;;;;;;;;106525;1281;25376;-79
2023/04/25 07:58:43;;;;;;;8.10;3.40;;;;;;;;;;106537;1281;24232;-80
2023/04/25 08:01:11;;;;;;;9.10;3.60;;;;;;;;;;106650;1263;22646;-86
2023/04/25 08:03:47;;;;;;;11.20;3.80;;;;;;;;;;106478;1267;22932;-82
2023/04/25 08:06:22;;;;;;;8.80;2.90;;;;;;;;;;106734;1276;24234;-84
2023/04/25 08:08:56;;;;;;;8.10;3.70;;;;;;;;;;106639;1277;25281;-79
2023/04/25 08:11:23;;;;;;;9.10;3.30;;;;;;;;;;106608;1276;22545;-80
2023/04/25 08:13:50;;;;;;;7.70;3.40;;;;;;;;;;106518;1265;22529;-81
2023/04/25 08:16:19;;;;;;;9.10;2.90;;;;;;;;;;106422;1281;23903;-82
2023/04/25 08:18:46;;;;;;;5.60;1.80;;;;;;;;;;106574;1264;24259;-83
2023/04/25 08:21:12;;;;;;;7.60;1.90;;;;;;;;;;106526;1279;22572;-85
2023/04/25 08:23:42;;;;;;;5.50;1.90;;;;;;;;;;106241;1266;25223;-85
2023/04/25 08:26:15;;;;;;;5.00;1.80;;;;;;;;;;106513;1281;25411;-82
2023/04/25 08:28:44;;;;;;;8.80;1.50;;;;;;;;;;106521;1281;22517;-82
2023/04/25 08:31:12;;;;;;;5.10;1.80;;;;;;;;;;106540;1281;22546;-82
2023/04/25 08:34:25;;;;;;;5.00;1.80;;;;;;;;;;103538;1297;549538;-85
2023/04/25 08:37:10;;;;;;;;;;;;;;;;;;;;;
2023/04/25 08:40:10;;;;;;;6.00;2.20;;;;;;;;;;106098;1268;22761;-80
2023/04/25 08:42:57;;;;;;;6.50;2.30;;;;;;;;;;105780;1285;25526;-80
2023/04/25 08:45:24;;;;;;;4.80;1.60;;;;;;;;;;105787;1274;25297;-81
2023/04/25 08:47:51;;;;;;;6.10;1.80;;;;;;;;;;104174;1285;2719032;-81
2023/04/25 08:50:21;;;;;;;5.90;1.80;;;;;;;;;;106067;1281;22552;-81
2023/04/25 08:52:49;;;;;;;5.60;1.70;;;;;;;;;;106034;1282;22835;-82
2023/04/25 08:55:18;;;;;;;6.00;1.40;;;;;;;;;;106521;1262;24234;-84
2023/04/25 08:57:44;;;;;;;4.70;1.70;;;;;;;;;;106721;1272;24681;-83
2023/04/25 09:00:12;;;;;;;4.40;1.60;;;;;;;;;;106830;1279;23253;-80
2023/04/25 09:02:41;;;;;;;5.50;1.40;;;;;;;;;;106883;1276;22662;-80
2023/04/25 09:05:09;;;;;;;4.30;1.30;;;;;;;;;;106521;1274;22768;-81
2023/04/25 09:07:44;;;;;;;5.80;1.80;;;;;;;;;;106755;1277;25351;-86
2023/04/25 09:10:10;;;;;;;5.50;1.40;;;;;;;;;;106810;1271;24270;-84
2023/04/25 09:12:37;;;;;;;4.50;1.50;;;;;;;;;;106725;1280;22535;-83
2023/04/25 09:15:08;;;;;;;2.80;1.10;;;;;;;;;;106519;1262;22641;-81
2023/04/25 09:18:07;;;;;;;6.00;1.40;;;;;;;;;;106726;1279;22621;-80
2023/04/25 09:20:43;;;;;;;5.60;1.50;;;;;;;;;;106736;1272;24256;-81
2023/04/25 09:23:10;;;;;;;4.90;1.20;;;;;;;;;;110078;1278;22217;-79
2023/04/25 09:25:39;;;;;;;8.30;2.10;;;;;;;;;;110185;1262;22443;-80
2023/04/25 09:28:06;;;;;;;5.50;1.50;;;;;;;;;;110096;1279;22773;-80
2023/04/25 09:30:34;;;;;;;7.90;1.50;;;;;;;;;;110055;1279;22176;-81
2023/04/25 09:33:30;;;;;;;6.70;2.30;;;;;;;;;;110167;1280;22121;-80
2023/04/25 09:36:02;;;;;;;4.60;1.40;;;;;;;;;;110157;1262;22773;-79
2023/04/25 09:39:14;;;;;;;4.50;1.20;;;;;;;;;;110140;1280;22110;-81
2023/04/25 09:41:42;;;;;;;5.50;1.10;;;;;;;;;;110077;1280;22131;-81
2023/04/25 09:44:12;;;;;;;4.10;1.20;;;;;;;;;;110082;1256;22381;-81
2023/04/25 09:46:41;;;;;;;6.60;1.50;;;;;;;;;;110089;1280;22348;-81
2023/04/25 09:49:14;;;;;;;4.90;1.40;;;;;;;;;;110117;1280;22880;-81
2023/04/25 09:51:58;;;;;;;6.00;1.30;;;;;;;;;;110141;1280;22370;-82
2023/04/25 09:54:28;;;;;;;4.70;1.20;;;;;;;;;;110074;1256;22846;-81
2023/04/25 09:57:14;;;;;;;9.90;2.90;;;;;;;;;;110083;1279;22889;-78
2023/04/25 09:59:50;;;;;;;4.20;1.20;;;;;;;;;;110091;1280;22127;-80
2023/04/25 10:02:21;;;;;;;4.40;1.00;;;;;;;;;;110312;1277;23022;-79
2023/04/25 10:04:48;;;;;;;8.50;1.50;;;;;;;;;;110274;1256;22181;-80
2023/04/25 10:07:23;;;;;;;5.60;1.70;;;;;;;;;;110297;1277;23338;-81
2023/04/25 10:09:52;;;;;;;5.80;1.80;;;;;;;;;;110311;1277;22099;-81
2023/04/25 10:12:19;;;;;;;4.50;1.20;;;;;;;;;;110429;1277;22735;-82
2023/04/25 10:14:46;;;;;;;4.50;1.50;;;;;;;;;;110479;1277;22397;-80
2023/04/25 10:17:13;;;;;;;8.10;1.40;;;;;;;;;;110296;1260;22139;-82
2023/04/25 10:19:42;;;;;;;7.90;1.40;;;;;;;;;;110468;1277;22288;-81
2023/04/25 10:22:32;;;;;;;9.90;1.20;;;;;;;;;;110320;1277;22900;-81
2023/04/25 10:25:00;;;;;;;6.50;1.60;;;;;;;;;;110344;1277;22458;-80
2023/04/25 10:27:29;;;;;;;8.90;3.40;;;;;;;;;;110325;1259;22127;-80
2023/04/25 10:30:04;;;;;;;12.80;5.60;;;;;;;;;;110310;1277;23144;-80
2023/04/25 10:32:31;;;;;;;15.90;7.00;;;;;;;;;;110262;1275;22124;-80
2023/04/25 10:34:57;;;;;;;13.80;6.20;;;;;;;;;;110116;1279;22183;-80
2023/04/25 10:37:24;;;;;;;6.70;2.50;;;;;;;;;;110263;1260;22097;-82
2023/04/25 10:39:50;;;;;;;13.70;4.50;;;;;;;;;;110150;1278;22112;-80
2023/04/25 10:42:17;;;;;;;8.00;2.20;;;;;;;;;;110229;1279;22138;-82
2023/04/25 10:45:00;;;;;;;9.10;2.40;;;;;;;;;;110265;1279;22286;-81
2023/04/25 10:47:34;;;;;;;37.10;15.60;;;;;;;;;;110285;1262;22171;-81
2023/04/25 10:50:04;;;;;;;9.90;3.40;;;;;;;;;;110290;1279;22204;-81
2023/04/25 10:52:32;;;;;;;11.40;2.50;;;;;;;;;;110254;1279;22131;-81
2023/04/25 10:55:01;;;;;;;4.90;1.40;;;;;;;;;;110268;1279;22182;-81
2023/04/25 10:57:29;;;;;;;4.40;1.10;;;;;;;;;;110038;1272;22232;-81
2023/04/25 10:59:59;;;;;;;4.90;1.30;;;;;;;;;;110253;1279;22139;-82
2023/04/25 11:02:26;;;;;;;9.60;2.90;;;;;;;;;;110228;1279;22131;-80
2023/04/25 11:04:53;;;;;;;39.00;16.90;;;;;;;;;;110232;1279;21994;-80
2023/04/25 11:07:26;;;;;;;12.70;4.80;;;;;;;;;;110220;1271;22889;-79
2023/04/25 11:09:52;;;;;;;11.00;3.10;;;;;;;;;;110251;1279;22203;-81
2023/04/25 11:12:18;;;;;;;8.80;2.00;;;;;;;;;;110242;1279;22453;-82
2023/04/25 11:14:44;;;;;;;5.70;1.80;;;;;;;;;;110260;1279;22227;-80
2023/04/25 11:17:11;;;;;;;6.80;1.40;;;;;;;;;;110241;1272;22179;-82
2023/04/25 11:19:38;;;;;;;8.10;1.60;;;;;;;;;;110233;1279;22417;-81
2023/04/25 11:22:05;;;;;;;18.30;9.20;;;;;;;;;;110243;1279;22502;-81
2023/04/25 11:24:35;;;;;;;9.00;3.50;;;;;;;;;;110146;1278;22155;-82
2023/04/25 11:27:02;;;;;;;5.90;1.30;;;;;;;;;;110278;1272;22958;-80
2023/04/25 11:29:32;;;;;;;11.90;3.50;;;;;;;;;;110223;1279;22183;-81
2023/04/25 11:31:59;;;;;;;3.70;1.10;;;;;;;;;;110239;1279;22049;-81
2023/04/25 11:34:30;;;;;;;6.30;2.00;;;;;;;;;;110131;1280;22175;-80
2023/04/25 11:36:57;;;;;;;8.00;2.10;;;;;;;;;;110103;1272;22749;-82
2023/04/25 11:39:24;;;;;;;8.80;2.20;;;;;;;;;;110131;1279;22309;-81
2023/04/25 11:41:51;;;;;;;14.60;6.20;;;;;;;;;;110143;1279;22107;-81
2023/04/25 11:44:18;;;;;;;7.10;2.40;;;;;;;;;;110233;1280;22146;-79
2023/04/25 11:46:45;;;;;;;4.50;1.30;;;;;;;;;;110101;1256;22143;-81
2023/04/25 11:49:12;;;;;;;12.80;6.00;;;;;;;;;;110027;1280;22135;-82
2023/04/25 11:51:43;;;;;;;10.50;2.50;;;;;;;;;;110238;1279;22159;-80
2023/04/25 11:54:12;;;;;;;17.00;6.50;;;;;;;;;;110242;1280;22346;-81
2023/04/25 11:56:42;;;;;;;13.40;2.40;;;;;;;;;;110129;1279;22056;-82
2023/04/25 11:59:09;;;;;;;7.90;1.80;;;;;;;;;;110261;1262;22159;-81
2023/04/25 12:01:36;;;;;;;6.60;2.00;;;;;;;;;;110150;1279;22235;-81
2023/04/25 12:04:11;;;;;;;5.10;2.00;;;;;;;;;;110119;1280;23275;-82
2023/04/25 12:06:41;;;;;;;6.80;1.60;;;;;;;;;;110227;1280;22203;-80
2023/04/25 12:09:12;;;;;;;6.20;1.90;;;;;;;;;;110265;1260;22186;-80
2023/04/25 12:11:45;;;;;;;8.30;2.90;;;;;;;;;;110253;1280;22195;-81
2023/04/25 12:14:20;;;;;;;6.20;1.60;;;;;;;;;;110087;1280;23084;-83
2023/04/25 12:16:50;;;;;;;6.60;1.40;;;;;;;;;;110230;1279;22154;-80
2023/04/25 12:19:17;;;;;;;7.60;2.60;;;;;;;;;;110229;1262;22331;-80
2023/04/25 12:21:44;;;;;;;5.90;1.50;;;;;;;;;;110245;1279;22176;-80
2023/04/25 12:24:25;;;;;;;7.00;1.40;;;;;;;;;;110119;1280;22164;-81
2023/04/25 12:26:52;;;;;;;7.60;3.30;;;;;;;;;;110110;1280;22209;-81
2023/04/25 12:29:20;;;;;;;32.60;22.40;;;;;;;;;;110144;1263;22118;-81
2023/04/25 12:31:46;;;;;;;19.50;12.70;;;;;;;;;;110213;1280;22822;-82
2023/04/25 12:34:13;;;;;;;6.10;2.10;;;;;;;;;;110213;1280;22475;-82
2023/04/25 12:36:39;;;;;;;8.50;2.70;;;;;;;;;;110123;1280;22087;-81
2023/04/25 12:39:11;;;;;;;5.10;1.80;;;;;;;;;;110104;1262;22341;-83
2023/04/25 12:41:38;;;;;;;5.70;1.50;;;;;;;;;;110132;1280;22846;-81
2023/04/25 12:44:04;;;;;;;8.00;1.50;;;;;;;;;;110201;1280;22389;-81
2023/04/25 12:46:30;;;;;;;5.40;1.50;;;;;;;;;;110083;1280;22126;-81
2023/04/25 12:48:57;;;;;;;5.70;1.80;;;;;;;;;;110186;1259;22157;-79
2023/04/25 12:51:43;;;;;;;5.00;1.40;;;;;;;;;;110067;1280;22890;-82
2023/04/25 12:54:22;;;;;;;5.30;1.50;;;;;;;;;;110203;1280;22959;-80
2023/04/25 12:56:57;;;;;;;4.20;1.20;;;;;;;;;;110054;1280;22112;-80
2023/04/25 12:59:23;;;;;;;6.20;1.50;;;;;;;;;;110255;1262;22135;-81
2023/04/25 13:01:49;;;;;;;5.50;1.30;;;;;;;;;;110077;1280;22113;-81
2023/04/25 13:04:15;;;;;;;4.40;1.20;;;;;;;;;;110213;1280;22920;-79
2023/04/25 13:06:42;;;;;;;5.20;1.50;;;;;;;;;;110089;1280;22137;-80
2023/04/25 13:09:13;;;;;;;5.20;1.60;;;;;;;;;;110329;1262;22348;-79
2023/04/25 13:11:40;;;;;;;5.70;1.80;;;;;;;;;;110108;1280;22120;-80
2023/04/25 13:14:07;;;;;;;7.90;1.70;;;;;;;;;;110065;1280;22257;-82
2023/04/25 13:16:36;;;;;;;7.90;1.90;;;;;;;;;;110185;1280;21969;-81
2023/04/25 13:19:07;;;;;;;5.10;1.30;;;;;;;;;;110088;1264;22136;-81
2023/04/25 13:21:33;;;;;;;5.60;1.50;;;;;;;;;;110023;1280;22169;-80
2023/04/25 13:23:59;;;;;;;5.60;1.70;;;;;;;;;;110202;1280;22082;-81
2023/04/25 13:26:26;;;;;;;5.00;1.30;;;;;;;;;;110119;1280;22174;-81
2023/04/25 13:28:52;;;;;;;4.60;1.50;;;;;;;;;;110083;1257;22200;-80
2023/04/25 13:31:18;;;;;;;5.40;1.50;;;;;;;;;;110094;1280;22122;-80
2023/04/25 13:33:47;;;;;;;5.10;1.60;;;;;;;;;;110138;1280;22237;-82
2023/04/25 13:36:14;;;;;;;6.00;2.00;;;;;;;;;;110072;1280;22326;-80
2023/04/25 13:38:43;;;;;;;5.30;1.60;;;;;;;;;;110076;1280;22129;-79
2023/04/25 13:41:17;;;;;;;4.40;1.80;;;;;;;;;;110210;1263;22309;-80
2023/04/25 13:43:45;;;;;;;5.90;2.10;;;;;;;;;;110137;1280;22097;-80
2023/04/25 13:46:13;;;;;;;6.70;1.80;;;;;;;;;;110123;1280;22582;-79
2023/04/25 13:48:40;;;;;;;5.90;1.90;;;;;;;;;;110115;1281;22145;-79
2023/04/25 13:51:07;;;;;;;6.20;2.10;;;;;;;;;;110178;1262;22375;-80
2023/04/25 13:53:33;;;;;;;6.50;1.80;;;;;;;;;;110076;1280;22147;-78
2023/04/25 13:56:00;;;;;;;5.90;1.70;;;;;;;;;;110100;1280;22114;-79
2023/04/25 13:58:26;;;;;;;6.30;1.80;;;;;;;;;;110076;1280;22162;-80
2023/04/25 14:00:53;;;;;;;5.00;1.30;;;;;;;;;;110088;1261;22211;-80
2023/04/25 14:03:19;;;;;;;9.00;3.10;;;;;;;;;;110107;1280;22112;-79
2023/04/25 14:05:45;;;;;;;6.50;2.30;;;;;;;;;;110071;1280;22156;-79
2023/04/25 14:08:11;;;;;;;8.20;2.40;;;;;;;;;;110086;1280;22148;-79
2023/04/25 14:10:38;;;;;;;6.40;2.00;;;;;;;;;;110049;1260;22224;-80
2023/04/25 14:13:04;;;;;;;6.90;2.10;;;;;;;;;;110072;1280;22778;-79
2023/04/25 14:15:31;;;;;;;6.10;1.70;;;;;;;;;;110116;1280;22159;-77
2023/04/25 14:17:57;;;;;;;6.50;2.10;;;;;;;;;;110087;1281;22144;-80
2023/04/25 14:20:23;;;;;;;5.00;1.60;;;;;;;;;;110175;1263;22896;-79
2023/04/25 14:22:50;;;;;;;14.80;6.20;;;;;;;;;;110079;1280;22177;-80
2023/04/25 14:25:17;;;;;;;7.10;2.30;;;;;;;;;;110119;1281;22097;-78
2023/04/25 14:27:45;;;;;;;7.00;2.20;;;;;;;;;;110136;1280;22259;-80
2023/04/25 14:30:11;;;;;;;59.50;28.10;;;;;;;;;;110070;1257;22310;-79
2023/04/25 14:32:38;;;;;;;43.10;20.10;;;;;;;;;;110068;1281;22877;-78
2023/04/25 14:35:07;;;;;;;18.70;10.10;;;;;;;;;;110057;1281;22155;-79
2023/04/25 14:37:34;;;;;;;15.50;12.00;;;;;;;;;;110025;1281;22106;-78
2023/04/25 14:40:01;;;;;;;7.90;3.50;;;;;;;;;;110074;1281;22108;-80
2023/04/25 14:42:28;;;;;;;6.40;2.30;;;;;;;;;;110299;1261;22175;-78
2023/04/25 14:44:55;;;;;;;4.80;1.70;;;;;;;;;;110095;1281;22278;-78
2023/04/25 14:47:22;;;;;;;4.50;1.70;;;;;;;;;;110055;1281;22216;-79
2023/04/25 14:49:53;;;;;;;6.00;2.00;;;;;;;;;;110026;1281;22166;-79
2023/04/25 14:52:20;;;;;;;5.80;1.80;;;;;;;;;;110339;1257;22152;-79
2023/04/25 14:54:48;;;;;;;7.00;1.80;;;;;;;;;;110091;1281;22650;-79
2023/04/25 14:57:16;;;;;;;7.10;1.90;;;;;;;;;;110043;1281;22093;-80
2023/04/25 14:59:43;;;;;;;8.60;2.30;;;;;;;;;;110096;1281;22187;-80
2023/04/25 15:02:11;;;;;;;9.20;2.70;;;;;;;;;;110270;1258;22157;-80
2023/04/25 15:04:38;;;;;;;9.10;3.00;;;;;;;;;;110033;1281;22180;-80
2023/04/25 15:07:06;;;;;;;8.80;2.70;;;;;;;;;;110042;1263;22133;-78
2023/04/25 15:09:32;;;;;;;9.80;2.90;;;;;;;;;;110077;1281;22200;-79
2023/04/25 15:11:59;;;;;;;8.20;3.10;;;;;;;;;;110262;1261;22192;-79
2023/04/25 15:14:25;;;;;;;9.00;3.40;;;;;;;;;;110088;1281;22117;-80
2023/04/25 15:16:55;;;;;;;9.90;3.00;;;;;;;;;;110106;1281;22856;-78
2023/04/25 15:19:21;;;;;;;11.20;3.80;;;;;;;;;;110099;1281;22129;-79
2023/04/25 15:21:48;;;;;;;10.10;4.00;;;;;;;;;;110177;1262;22117;-82
2023/04/25 15:24:15;;;;;;;12.70;4.20;;;;;;;;;;110080;1281;22387;-80
2023/04/25 15:26:42;;;;;;;15.70;7.10;;;;;;;;;;110069;1281;22569;-79
2023/04/25 15:29:09;;;;;;;8.60;3.40;;;;;;;;;;110035;1281;22197;-79
2023/04/25 15:31:36;;;;;;;6.40;2.40;;;;;;;;;;110076;1264;22127;-78
2023/04/25 15:34:05;;;;;;;9.70;3.80;;;;;;;;;;110009;1281;22148;-80
2023/04/25 15:36:33;;;;;;;10.70;4.50;;;;;;;;;;110088;1281;22251;-78
2023/04/25 15:39:01;;;;;;;12.00;5.50;;;;;;;;;;110074;1281;22189;-78
2023/04/25 15:41:29;;;;;;;14.70;8.10;;;;;;;;;;110064;1260;22171;-79
2023/04/25 15:44:00;;;;;;;15.30;8.10;;;;;;;;;;110114;1281;22149;-79
2023/04/25 15:46:29;;;;;;;8.70;2.90;;;;;;;;;;110079;1281;22113;-78
2023/04/25 15:48:58;;;;;;;6.80;2.60;;;;;;;;;;110035;1281;22149;-79